Glasgo, Connecticut
Current Conditions -  °F | °C
As of 11:04 AM on Friday 24 Oct 2014 (Local Time) from KWST Reporting Station
Overcast Overcast  
Wind Chill: 52°   Ceiling: 1500
Heat Index: 52°   Visibility: 10mi
Dew Point: 46°   Wind: 10mph
Humidity: 80%   Direction: 330°NNW
Pressure: 29.73"   Gusts: NA
Location:  41.56°N, 71.89°W
Report Text: KWST 241504Z AUTO 33009KT 10SM OVC015 11/08 A2973 RMK AO2 T01110078
Loading
Personal Weather Stations






























Interactive Weather Map
Tropical Storm Tracking
New forecast layout! Learn more

10-Day Weather Forecast

Advertisements
Track Severe Weather on mobile